sensor_id;sensor_type;location;lat;lon;timestamp;temperature;humidity
2391;DHT22;22957;50.824;4.360;2023-07-13T00:00:18;18.50;99.90
2391;DHT22;22957;50.824;4.360;2023-07-13T00:02:44;18.50;99.90
2391;DHT22;22957;50.824;4.360;2023-07-13T00:05:09;18.60;99.90
2391;DHT22;22957;50.824;4.360;2023-07-13T00:07:36;18.60;99.90
2391;DHT22;22957;50.824;4.360;2023-07-13T00:10:02;18.50;99.90
2391;DHT22;22957;50.824;4.360;2023-07-13T00:12:33;18.30;99.90
2391;DHT22;22957;50.824;4.360;2023-07-13T00:15:00;18.10;99.90
2391;DHT22;22957;50.824;4.360;2023-07-13T00:17:26;18.20;99.90
2391;DHT22;22957;50.824;4.360;2023-07-13T00:19:52;18.30;99.90
2391;DHT22;22957;50.824;4.360;2023-07-13T00:22:19;18.30;99.90
2391;DHT22;22957;50.824;4.360;2023-07-13T00:24:44;18.30;99.90
2391;DHT22;22957;50.824;4.360;2023-07-13T00:27:10;18.50;99.90
2391;DHT22;22957;50.824;4.360;2023-07-13T00:29:37;18.40;99.90
2391;DHT22;22957;50.824;4.360;2023-07-13T00:32:06;18.30;99.90
2391;DHT22;22957;50.824;4.360;2023-07-13T00:34:32;18.10;99.90
2391;DHT22;22957;50.824;4.360;2023-07-13T00:36:58;18.10;99.90
2391;DHT22;22957;50.824;4.360;2023-07-13T00:39:24;18.20;99.90
2391;DHT22;22957;50.824;4.360;2023-07-13T00:41:50;18.10;99.90
2391;DHT22;22957;50.824;4.360;2023-07-13T00:44:17;18.00;99.90
2391;DHT22;22957;50.824;4.360;2023-07-13T00:46:42;17.80;99.90
2391;DHT22;22957;50.824;4.360;2023-07-13T00:49:11;17.90;99.90
2391;DHT22;22957;50.824;4.360;2023-07-13T00:51:47;17.60;99.90
2391;DHT22;22957;50.824;4.360;2023-07-13T00:54:17;17.80;99.90
2391;DHT22;22957;50.824;4.360;2023-07-13T00:56:46;17.90;99.90
2391;DHT22;22957;50.824;4.360;2023-07-13T00:59:13;17.80;99.90
2391;DHT22;22957;50.824;4.360;2023-07-13T01:01:40;18.20;99.90
2391;DHT22;22957;50.824;4.360;2023-07-13T01:04:06;18.30;99.90
2391;DHT22;22957;50.824;4.360;2023-07-13T01:06:35;18.30;99.90
2391;DHT22;22957;50.824;4.360;2023-07-13T01:09:01;18.30;99.90
2391;DHT22;22957;50.824;4.360;2023-07-13T01:11:27;18.30;99.90
2391;DHT22;22957;50.824;4.360;2023-07-13T01:13:53;18.10;99.90
2391;DHT22;22957;50.824;4.360;2023-07-13T01:16:31;17.90;99.90
2391;DHT22;22957;50.824;4.360;2023-07-13T01:18:57;18.00;99.90
2391;DHT22;22957;50.824;4.360;2023-07-13T01:21:24;17.80;99.90
2391;DHT22;22957;50.824;4.360;2023-07-13T01:23:50;18.00;99.90
2391;DHT22;22957;50.824;4.360;2023-07-13T01:26:15;18.00;99.90
2391;DHT22;22957;50.824;4.360;2023-07-13T01:28:41;17.90;99.90
2391;DHT22;22957;50.824;4.360;2023-07-13T01:31:07;17.80;99.90
2391;DHT22;22957;50.824;4.360;2023-07-13T01:33:34;18.00;99.90
2391;DHT22;22957;50.824;4.360;2023-07-13T01:35:59;18.10;99.90
2391;DHT22;22957;50.824;4.360;2023-07-13T01:38:27;18.00;99.90
2391;DHT22;22957;50.824;4.360;2023-07-13T01:40:53;18.00;99.90
2391;DHT22;22957;50.824;4.360;2023-07-13T01:43:19;18.10;99.90
2391;DHT22;22957;50.824;4.360;2023-07-13T01:45:45;18.10;99.90
2391;DHT22;22957;50.824;4.360;2023-07-13T01:48:11;18.00;99.90
2391;DHT22;22957;50.824;4.360;2023-07-13T01:50:37;18.00;99.90
2391;DHT22;22957;50.824;4.360;2023-07-13T01:53:03;18.10;99.90
2391;DHT22;22957;50.824;4.360;2023-07-13T01:55:29;18.10;99.90
2391;DHT22;22957;50.824;4.360;2023-07-13T01:57:55;18.20;99.90
2391;DHT22;22957;50.824;4.360;2023-07-13T02:00:21;18.10;99.90
2391;DHT22;22957;50.824;4.360;2023-07-13T02:02:47;18.10;99.90
2391;DHT22;22957;50.824;4.360;2023-07-13T02:05:13;18.10;99.90
2391;DHT22;22957;50.824;4.360;2023-07-13T02:07:39;18.20;99.90
2391;DHT22;22957;50.824;4.360;2023-07-13T02:10:06;18.30;99.90
2391;DHT22;22957;50.824;4.360;2023-07-13T02:12:33;18.10;99.90
2391;DHT22;22957;50.824;4.360;2023-07-13T02:14:58;18.00;99.90
2391;DHT22;22957;50.824;4.360;2023-07-13T02:17:24;18.40;99.90
2391;DHT22;22957;50.824;4.360;2023-07-13T02:19:49;18.10;99.90
2391;DHT22;22957;50.824;4.360;2023-07-13T02:22:15;17.90;99.90
2391;DHT22;22957;50.824;4.360;2023-07-13T02:24:40;17.70;99.90
2391;DHT22;22957;50.824;4.360;2023-07-13T02:27:06;17.80;99.90
2391;DHT22;22957;50.824;4.360;2023-07-13T02:29:32;17.90;99.90
2391;DHT22;22957;50.824;4.360;2023-07-13T02:31:57;18.00;99.90
2391;DHT22;22957;50.824;4.360;2023-07-13T02:34:23;18.00;99.90
2391;DHT22;22957;50.824;4.360;2023-07-13T02:36:48;18.00;99.90
2391;DHT22;22957;50.824;4.360;2023-07-13T02:39:14;17.90;99.90
2391;DHT22;22957;50.824;4.360;2023-07-13T02:41:39;18.00;99.90
2391;DHT22;22957;50.824;4.360;2023-07-13T02:44:05;17.80;99.90
2391;DHT22;22957;50.824;4.360;2023-07-13T02:46:35;17.70;99.90
2391;DHT22;22957;50.824;4.360;2023-07-13T02:49:01;17.60;99.90
2391;DHT22;22957;50.824;4.360;2023-07-13T02:51:27;17.50;99.90
2391;DHT22;22957;50.824;4.360;2023-07-13T02:53:52;17.60;99.90
2391;DHT22;22957;50.824;4.360;2023-07-13T02:56:23;17.40;99.90
2391;DHT22;22957;50.824;4.360;2023-07-13T02:58:49;17.20;99.90
2391;DHT22;22957;50.824;4.360;2023-07-13T03:01:14;17.50;99.90
2391;DHT22;22957;50.824;4.360;2023-07-13T03:03:45;17.40;99.90
2391;DHT22;22957;50.824;4.360;2023-07-13T03:06:11;17.50;99.90
2391;DHT22;22957;50.824;4.360;2023-07-13T03:08:37;17.70;99.90
2391;DHT22;22957;50.824;4.360;2023-07-13T03:11:09;17.70;99.90
2391;DHT22;22957;50.824;4.360;2023-07-13T03:13:36;17.60;99.90
2391;DHT22;22957;50.824;4.360;2023-07-13T03:16:02;17.70;99.90
2391;DHT22;22957;50.824;4.360;2023-07-13T03:18:28;17.60;99.90
2391;DHT22;22957;50.824;4.360;2023-07-13T03:20:54;17.50;99.90
2391;DHT22;22957;50.824;4.360;2023-07-13T03:23:21;17.50;99.90
2391;DHT22;22957;50.824;4.360;2023-07-13T03:25:47;17.40;99.90
2391;DHT22;22957;50.824;4.360;2023-07-13T03:28:13;17.40;99.90
2391;DHT22;22957;50.824;4.360;2023-07-13T03:30:39;17.10;99.90
2391;DHT22;22957;50.824;4.360;2023-07-13T03:33:05;17.20;99.90
2391;DHT22;22957;50.824;4.360;2023-07-13T03:35:31;17.50;99.90
2391;DHT22;22957;50.824;4.360;2023-07-13T03:37:58;17.50;99.90
2391;DHT22;22957;50.824;4.360;2023-07-13T03:40:24;17.60;99.90
2391;DHT22;22957;50.824;4.360;2023-07-13T03:42:51;17.20;99.90
2391;DHT22;22957;50.824;4.360;2023-07-13T03:45:17;17.40;99.90
2391;DHT22;22957;50.824;4.360;2023-07-13T03:47:42;17.20;99.90
2391;DHT22;22957;50.824;4.360;2023-07-13T03:50:08;17.10;99.90
2391;DHT22;22957;50.824;4.360;2023-07-13T03:52:34;16.90;99.90
2391;DHT22;22957;50.824;4.360;2023-07-13T03:55:00;17.20;99.90
2391;DHT22;22957;50.824;4.360;2023-07-13T03:57:25;17.50;99.90
2391;DHT22;22957;50.824;4.360;2023-07-13T03:59:51;17.60;99.90
2391;DHT22;22957;50.824;4.360;2023-07-13T04:02:17;17.70;99.90
2391;DHT22;22957;50.824;4.360;2023-07-13T04:04:43;17.90;99.90
2391;DHT22;22957;50.824;4.360;2023-07-13T04:07:08;17.70;99.90
2391;DHT22;22957;50.824;4.360;2023-07-13T04:09:35;17.70;99.90
2391;DHT22;22957;50.824;4.360;2023-07-13T04:12:00;18.00;99.90
2391;DHT22;22957;50.824;4.360;2023-07-13T04:14:26;17.50;99.90
2391;DHT22;22957;50.824;4.360;2023-07-13T04:16:51;18.10;99.90
2391;DHT22;22957;50.824;4.360;2023-07-13T04:19:17;18.20;99.90
2391;DHT22;22957;50.824;4.360;2023-07-13T04:21:43;18.40;99.90
2391;DHT22;22957;50.824;4.360;2023-07-13T04:24:08;18.40;99.90
2391;DHT22;22957;50.824;4.360;2023-07-13T04:26:34;18.10;99.90
2391;DHT22;22957;50.824;4.360;2023-07-13T04:29:01;17.90;99.90
2391;DHT22;22957;50.824;4.360;2023-07-13T04:31:29;18.10;99.90
2391;DHT22;22957;50.824;4.360;2023-07-13T04:33:55;17.90;99.90
2391;DHT22;22957;50.824;4.360;2023-07-13T04:36:20;18.10;99.90
2391;DHT22;22957;50.824;4.360;2023-07-13T04:38:46;18.30;99.90
2391;DHT22;22957;50.824;4.360;2023-07-13T04:41:13;18.10;99.90
2391;DHT22;22957;50.824;4.360;2023-07-13T04:43:39;18.00;99.90
2391;DHT22;22957;50.824;4.360;2023-07-13T04:46:07;18.20;99.90
2391;DHT22;22957;50.824;4.360;2023-07-13T04:48:33;18.40;99.90
2391;DHT22;22957;50.824;4.360;2023-07-13T04:51:00;18.50;99.90
2391;DHT22;22957;50.824;4.360;2023-07-13T04:53:27;18.80;99.90
2391;DHT22;22957;50.824;4.360;2023-07-13T04:55:53;18.80;99.90
2391;DHT22;22957;50.824;4.360;2023-07-13T04:58:18;18.60;99.90
2391;DHT22;22957;50.824;4.360;2023-07-13T05:00:44;18.70;99.90
2391;DHT22;22957;50.824;4.360;2023-07-13T05:03:10;18.40;99.90
2391;DHT22;22957;50.824;4.360;2023-07-13T05:05:35;18.40;99.90
2391;DHT22;22957;50.824;4.360;2023-07-13T05:08:01;18.40;99.90
2391;DHT22;22957;50.824;4.360;2023-07-13T05:10:27;18.60;99.90
2391;DHT22;22957;50.824;4.360;2023-07-13T05:12:53;18.50;99.90
2391;DHT22;22957;50.824;4.360;2023-07-13T05:15:21;18.60;99.90
2391;DHT22;22957;50.824;4.360;2023-07-13T05:17:47;18.50;99.90
2391;DHT22;22957;50.824;4.360;2023-07-13T05:20:13;18.80;99.90
2391;DHT22;22957;50.824;4.360;2023-07-13T05:22:39;18.90;99.90
2391;DHT22;22957;50.824;4.360;2023-07-13T05:25:06;19.10;99.90
2391;DHT22;22957;50.824;4.360;2023-07-13T05:27:32;18.80;99.90
2391;DHT22;22957;50.824;4.360;2023-07-13T05:29:58;18.90;99.90
2391;DHT22;22957;50.824;4.360;2023-07-13T05:32:23;19.00;99.90
2391;DHT22;22957;50.824;4.360;2023-07-13T05:34:49;18.80;99.90
2391;DHT22;22957;50.824;4.360;2023-07-13T05:37:15;18.90;99.90
2391;DHT22;22957;50.824;4.360;2023-07-13T05:39:40;19.20;99.90
2391;DHT22;22957;50.824;4.360;2023-07-13T05:42:06;19.30;99.90
2391;DHT22;22957;50.824;4.360;2023-07-13T05:44:31;19.20;99.90
2391;DHT22;22957;50.824;4.360;2023-07-13T05:46:57;19.30;99.90
2391;DHT22;22957;50.824;4.360;2023-07-13T05:49:23;19.90;99.90
2391;DHT22;22957;50.824;4.360;2023-07-13T05:51:49;19.90;99.90
2391;DHT22;22957;50.824;4.360;2023-07-13T05:54:14;19.50;99.90
2391;DHT22;22957;50.824;4.360;2023-07-13T05:56:40;19.30;99.90
2391;DHT22;22957;50.824;4.360;2023-07-13T05:59:06;19.40;99.90
2391;DHT22;22957;50.824;4.360;2023-07-13T06:01:31;19.40;99.90
2391;DHT22;22957;50.824;4.360;2023-07-13T06:03:57;19.20;99.90
2391;DHT22;22957;50.824;4.360;2023-07-13T06:06:23;19.10;99.90
2391;DHT22;22957;50.824;4.360;2023-07-13T06:08:48;19.80;99.90
2391;DHT22;22957;50.824;4.360;2023-07-13T06:11:22;19.70;99.90
2391;DHT22;22957;50.824;4.360;2023-07-13T06:13:48;19.60;99.90
2391;DHT22;22957;50.824;4.360;2023-07-13T06:16:15;19.50;99.90
2391;DHT22;22957;50.824;4.360;2023-07-13T06:18:41;19.60;99.90
2391;DHT22;22957;50.824;4.360;2023-07-13T06:21:13;19.60;99.90
2391;DHT22;22957;50.824;4.360;2023-07-13T06:23:39;19.60;99.90
2391;DHT22;22957;50.824;4.360;2023-07-13T06:26:05;20.00;99.90
2391;DHT22;22957;50.824;4.360;2023-07-13T06:28:32;20.30;99.90
2391;DHT22;22957;50.824;4.360;2023-07-13T06:30:58;20.10;99.90
2391;DHT22;22957;50.824;4.360;2023-07-13T06:33:24;20.10;99.90
2391;DHT22;22957;50.824;4.360;2023-07-13T06:35:50;20.00;99.90
2391;DHT22;22957;50.824;4.360;2023-07-13T06:38:15;20.30;99.90
2391;DHT22;22957;50.824;4.360;2023-07-13T06:40:41;20.30;99.90
2391;DHT22;22957;50.824;4.360;2023-07-13T06:43:07;20.10;99.90
2391;DHT22;22957;50.824;4.360;2023-07-13T06:45:41;19.90;99.90
2391;DHT22;22957;50.824;4.360;2023-07-13T06:48:06;19.80;99.90
2391;DHT22;22957;50.824;4.360;2023-07-13T06:50:33;19.70;99.90
2391;DHT22;22957;50.824;4.360;2023-07-13T06:52:59;20.30;99.90
2391;DHT22;22957;50.824;4.360;2023-07-13T06:55:25;20.80;99.90
2391;DHT22;22957;50.824;4.360;2023-07-13T06:57:51;21.00;99.90
2391;DHT22;22957;50.824;4.360;2023-07-13T07:00:16;21.20;99.90
2391;DHT22;22957;50.824;4.360;2023-07-13T07:02:42;21.40;99.90
2391;DHT22;22957;50.824;4.360;2023-07-13T07:05:08;21.50;99.90
2391;DHT22;22957;50.824;4.360;2023-07-13T07:07:33;22.00;99.90
2391;DHT22;22957;50.824;4.360;2023-07-13T07:09:59;21.90;99.90
2391;DHT22;22957;50.824;4.360;2023-07-13T07:12:24;22.00;99.90
2391;DHT22;22957;50.824;4.360;2023-07-13T07:14:50;21.70;99.90
2391;DHT22;22957;50.824;4.360;2023-07-13T07:17:15;22.00;99.90
2391;DHT22;22957;50.824;4.360;2023-07-13T07:19:41;22.10;99.90
2391;DHT22;22957;50.824;4.360;2023-07-13T07:22:06;21.90;99.90
2391;DHT22;22957;50.824;4.360;2023-07-13T07:24:32;22.40;99.90
2391;DHT22;22957;50.824;4.360;2023-07-13T07:26:58;22.80;99.90
2391;DHT22;22957;50.824;4.360;2023-07-13T07:29:23;23.10;99.90
2391;DHT22;22957;50.824;4.360;2023-07-13T07:31:52;23.00;99.90
2391;DHT22;22957;50.824;4.360;2023-07-13T07:34:17;23.50;99.90
2391;DHT22;22957;50.824;4.360;2023-07-13T07:36:43;23.70;99.90
2391;DHT22;22957;50.824;4.360;2023-07-13T07:39:08;24.00;99.90
2391;DHT22;22957;50.824;4.360;2023-07-13T07:41:34;24.40;99.90
2391;DHT22;22957;50.824;4.360;2023-07-13T07:43:59;24.70;99.90
2391;DHT22;22957;50.824;4.360;2023-07-13T07:46:25;25.10;99.90
2391;DHT22;22957;50.824;4.360;2023-07-13T07:48:51;25.00;99.90
2391;DHT22;22957;50.824;4.360;2023-07-13T07:51:16;24.80;99.90
2391;DHT22;22957;50.824;4.360;2023-07-13T07:53:42;25.00;99.90
2391;DHT22;22957;50.824;4.360;2023-07-13T07:56:07;25.40;99.90
2391;DHT22;22957;50.824;4.360;2023-07-13T07:58:33;25.90;99.90
2391;DHT22;22957;50.824;4.360;2023-07-13T08:01:03;25.80;99.90
2391;DHT22;22957;50.824;4.360;2023-07-13T08:03:29;26.10;99.90
2391;DHT22;22957;50.824;4.360;2023-07-13T08:05:55;27.20;99.90
2391;DHT22;22957;50.824;4.360;2023-07-13T08:08:20;27.50;99.90
2391;DHT22;22957;50.824;4.360;2023-07-13T08:10:46;27.60;99.90
2391;DHT22;22957;50.824;4.360;2023-07-13T08:13:11;28.40;99.90
2391;DHT22;22957;50.824;4.360;2023-07-13T08:15:37;28.90;99.90
2391;DHT22;22957;50.824;4.360;2023-07-13T08:18:03;29.10;99.90
2391;DHT22;22957;50.824;4.360;2023-07-13T08:20:28;28.90;99.90
2391;DHT22;22957;50.824;4.360;2023-07-13T08:22:54;27.60;99.90
2391;DHT22;22957;50.824;4.360;2023-07-13T08:25:19;27.50;99.90
2391;DHT22;22957;50.824;4.360;2023-07-13T08:27:46;27.50;99.90
2391;DHT22;22957;50.824;4.360;2023-07-13T08:30:12;27.70;99.90
2391;DHT22;22957;50.824;4.360;2023-07-13T08:32:37;28.20;99.90
2391;DHT22;22957;50.824;4.360;2023-07-13T08:35:04;26.40;99.90
2391;DHT22;22957;50.824;4.360;2023-07-13T08:37:30;25.70;99.90
2391;DHT22;22957;50.824;4.360;2023-07-13T08:39:55;25.50;99.90
2391;DHT22;22957;50.824;4.360;2023-07-13T08:42:42;25.50;99.90
2391;DHT22;22957;50.824;4.360;2023-07-13T08:45:22;25.50;99.90
2391;DHT22;22957;50.824;4.360;2023-07-13T08:47:54;26.10;99.90
2391;DHT22;22957;50.824;4.360;2023-07-13T08:53:07;27.70;99.90
2391;DHT22;22957;50.824;4.360;2023-07-13T08:55:36;27.70;99.90
2391;DHT22;22957;50.824;4.360;2023-07-13T08:58:15;27.70;99.90
2391;DHT22;22957;50.824;4.360;2023-07-13T09:00:56;27.80;99.90
2391;DHT22;22957;50.824;4.360;2023-07-13T09:03:36;28.40;99.90
2391;DHT22;22957;50.824;4.360;2023-07-13T09:06:04;28.30;99.90
2391;DHT22;22957;50.824;4.360;2023-07-13T09:08:51;28.60;99.90
2391;DHT22;22957;50.824;4.360;2023-07-13T09:14:05;28.50;99.90
2391;DHT22;22957;50.824;4.360;2023-07-13T09:16:33;28.50;99.90
2391;DHT22;22957;50.824;4.360;2023-07-13T09:19:11;29.30;99.90
2391;DHT22;22957;50.824;4.360;2023-07-13T09:21:41;29.80;99.90
2391;DHT22;22957;50.824;4.360;2023-07-13T09:27:02;28.20;99.90
2391;DHT22;22957;50.824;4.360;2023-07-13T09:29:33;28.80;99.90
2391;DHT22;22957;50.824;4.360;2023-07-13T09:32:04;28.00;99.90
2391;DHT22;22957;50.824;4.360;2023-07-13T09:34:33;27.60;99.90
2391;DHT22;22957;50.824;4.360;2023-07-13T09:36:59;27.30;99.90
2391;DHT22;22957;50.824;4.360;2023-07-13T09:39:30;27.70;99.90
2391;DHT22;22957;50.824;4.360;2023-07-13T09:42:16;28.20;99.90
2391;DHT22;22957;50.824;4.360;2023-07-13T09:44:52;28.20;99.90
2391;DHT22;22957;50.824;4.360;2023-07-13T09:47:22;28.00;99.90
2391;DHT22;22957;50.824;4.360;2023-07-13T09:49:54;28.30;99.90
2391;DHT22;22957;50.824;4.360;2023-07-13T09:52:20;28.30;99.90
2391;DHT22;22957;50.824;4.360;2023-07-13T09:54:49;28.00;99.90
2391;DHT22;22957;50.824;4.360;2023-07-13T09:57:19;29.40;99.90
2391;DHT22;22957;50.824;4.360;2023-07-13T09:59:49;29.70;99.90
2391;DHT22;22957;50.824;4.360;2023-07-13T10:02:29;27.90;99.90
2391;DHT22;22957;50.824;4.360;2023-07-13T10:05:01;28.00;99.90
2391;DHT22;22957;50.824;4.360;2023-07-13T10:07:29;28.20;99.90
2391;DHT22;22957;50.824;4.360;2023-07-13T10:09:56;27.90;99.90
2391;DHT22;22957;50.824;4.360;2023-07-13T10:12:23;28.20;99.90
2391;DHT22;22957;50.824;4.360;2023-07-13T10:14:52;28.70;99.90
2391;DHT22;22957;50.824;4.360;2023-07-13T10:17:27;29.40;99.90
2391;DHT22;22957;50.824;4.360;2023-07-13T10:20:01;29.10;99.90
2391;DHT22;22957;50.824;4.360;2023-07-13T10:25:17;30.20;98.60
2391;DHT22;22957;50.824;4.360;2023-07-13T10:27:44;30.20;98.10
2391;DHT22;22957;50.824;4.360;2023-07-13T10:30:22;30.20;98.60
2391;DHT22;22957;50.824;4.360;2023-07-13T10:32:51;31.00;98.00
2391;DHT22;22957;50.824;4.360;2023-07-13T10:35:19;31.00;96.20
2391;DHT22;22957;50.824;4.360;2023-07-13T10:38:01;29.90;96.70
2391;DHT22;22957;50.824;4.360;2023-07-13T10:40:37;29.00;98.20
2391;DHT22;22957;50.824;4.360;2023-07-13T10:43:09;29.80;97.70
2391;DHT22;22957;50.824;4.360;2023-07-13T10:45:39;29.80;97.50
2391;DHT22;22957;50.824;4.360;2023-07-13T10:48:07;28.20;98.90
2391;DHT22;22957;50.824;4.360;2023-07-13T10:50:38;27.70;99.10
2391;DHT22;22957;50.824;4.360;2023-07-13T10:53:29;27.80;99.30
2391;DHT22;22957;50.824;4.360;2023-07-13T10:55:59;27.90;99.10
2391;DHT22;22957;50.824;4.360;2023-07-13T10:58:40;28.20;99.10
2391;DHT22;22957;50.824;4.360;2023-07-13T11:01:15;28.60;98.30
2391;DHT22;22957;50.824;4.360;2023-07-13T11:03:50;28.30;98.30
2391;DHT22;22957;50.824;4.360;2023-07-13T11:08:55;28.10;98.70
2391;DHT22;22957;50.824;4.360;2023-07-13T11:18:51;27.60;98.20
2391;DHT22;22957;50.824;4.360;2023-07-13T11:21:19;28.50;98.40
2391;DHT22;22957;50.824;4.360;2023-07-13T11:23:52;28.70;98.30
2391;DHT22;22957;50.824;4.360;2023-07-13T11:26:50;29.40;97.60
2391;DHT22;22957;50.824;4.360;2023-07-13T11:31:55;28.40;97.90
2391;DHT22;22957;50.824;4.360;2023-07-13T11:36:51;27.90;99.00
2391;DHT22;22957;50.824;4.360;2023-07-13T11:41:50;27.80;98.60
2391;DHT22;22957;50.824;4.360;2023-07-13T11:44:19;27.70;98.50
2391;DHT22;22957;50.824;4.360;2023-07-13T11:46:53;27.40;98.50
2391;DHT22;22957;50.824;4.360;2023-07-13T11:49:21;27.10;98.50
2391;DHT22;22957;50.824;4.360;2023-07-13T11:51:47;26.50;99.80
2391;DHT22;22957;50.824;4.360;2023-07-13T11:54:26;26.00;99.90
2391;DHT22;22957;50.824;4.360;2023-07-13T11:56:52;26.20;99.90
2391;DHT22;22957;50.824;4.360;2023-07-13T11:59:18;25.90;99.90
2391;DHT22;22957;50.824;4.360;2023-07-13T12:01:51;25.50;99.90
2391;DHT22;22957;50.824;4.360;2023-07-13T12:04:29;25.60;99.90
2391;DHT22;22957;50.824;4.360;2023-07-13T12:07:16;25.40;99.90
2391;DHT22;22957;50.824;4.360;2023-07-13T12:09:42;24.70;99.90
2391;DHT22;22957;50.824;4.360;2023-07-13T12:12:12;25.10;99.90
2391;DHT22;22957;50.824;4.360;2023-07-13T12:14:39;25.70;99.90
2391;DHT22;22957;50.824;4.360;2023-07-13T12:17:20;26.20;99.90
2391;DHT22;22957;50.824;4.360;2023-07-13T12:19:47;26.20;99.90
2391;DHT22;22957;50.824;4.360;2023-07-13T12:22:14;26.20;99.90
2391;DHT22;22957;50.824;4.360;2023-07-13T12:24:41;26.40;99.90
2391;DHT22;22957;50.824;4.360;2023-07-13T12:27:26;26.40;99.90
2391;DHT22;22957;50.824;4.360;2023-07-13T12:29:58;26.50;99.90
2391;DHT22;22957;50.824;4.360;2023-07-13T12:32:25;27.10;99.90
2391;DHT22;22957;50.824;4.360;2023-07-13T12:34:57;27.30;99.90
2391;DHT22;22957;50.824;4.360;2023-07-13T12:37:28;26.80;99.90
2391;DHT22;22957;50.824;4.360;2023-07-13T12:39:55;26.20;99.90
2391;DHT22;22957;50.824;4.360;2023-07-13T12:42:24;25.70;99.90
2391;DHT22;22957;50.824;4.360;2023-07-13T12:45:01;25.40;99.90
2391;DHT22;22957;50.824;4.360;2023-07-13T12:47:28;24.70;99.90
2391;DHT22;22957;50.824;4.360;2023-07-13T12:49:56;24.60;99.90
2391;DHT22;22957;50.824;4.360;2023-07-13T12:52:33;23.90;99.90
2391;DHT22;22957;50.824;4.360;2023-07-13T12:55:22;23.40;99.90
2391;DHT22;22957;50.824;4.360;2023-07-13T12:57:56;23.20;99.90
2391;DHT22;22957;50.824;4.360;2023-07-13T13:00:30;22.50;99.90
2391;DHT22;22957;50.824;4.360;2023-07-13T13:03:13;22.50;99.90
2391;DHT22;22957;50.824;4.360;2023-07-13T13:05:44;22.40;99.90
2391;DHT22;22957;50.824;4.360;2023-07-13T13:08:11;22.50;99.90
2391;DHT22;22957;50.824;4.360;2023-07-13T13:10:37;23.00;99.90
2391;DHT22;22957;50.824;4.360;2023-07-13T13:13:03;23.80;99.90
2391;DHT22;22957;50.824;4.360;2023-07-13T13:15:28;24.30;99.90
2391;DHT22;22957;50.824;4.360;2023-07-13T13:17:55;24.40;99.90
2391;DHT22;22957;50.824;4.360;2023-07-13T13:20:21;24.70;99.90
2391;DHT22;22957;50.824;4.360;2023-07-13T13:22:47;25.10;99.90
2391;DHT22;22957;50.824;4.360;2023-07-13T13:25:14;25.30;99.90
2391;DHT22;22957;50.824;4.360;2023-07-13T13:27:44;25.40;99.90
2391;DHT22;22957;50.824;4.360;2023-07-13T13:30:11;25.20;99.90
2391;DHT22;22957;50.824;4.360;2023-07-13T13:32:42;25.50;99.90
2391;DHT22;22957;50.824;4.360;2023-07-13T13:35:18;25.80;99.90
2391;DHT22;22957;50.824;4.360;2023-07-13T13:37:45;25.90;99.90
2391;DHT22;22957;50.824;4.360;2023-07-13T13:40:17;26.40;99.90
2391;DHT22;22957;50.824;4.360;2023-07-13T13:42:43;26.80;99.90
2391;DHT22;22957;50.824;4.360;2023-07-13T13:45:12;27.30;99.90
2391;DHT22;22957;50.824;4.360;2023-07-13T13:47:39;27.50;99.90
2391;DHT22;22957;50.824;4.360;2023-07-13T13:50:21;27.50;99.90
2391;DHT22;22957;50.824;4.360;2023-07-13T13:52:50;26.90;99.90
2391;DHT22;22957;50.824;4.360;2023-07-13T13:55:19;27.20;99.90
2391;DHT22;22957;50.824;4.360;2023-07-13T13:57:45;26.80;99.90
2391;DHT22;22957;50.824;4.360;2023-07-13T14:00:12;26.10;99.90
2391;DHT22;22957;50.824;4.360;2023-07-13T14:02:41;25.70;99.90
2391;DHT22;22957;50.824;4.360;2023-07-13T14:05:12;25.10;99.90
2391;DHT22;22957;50.824;4.360;2023-07-13T14:07:38;25.20;99.90
2391;DHT22;22957;50.824;4.360;2023-07-13T14:10:13;24.90;99.90
2391;DHT22;22957;50.824;4.360;2023-07-13T14:12:41;24.90;99.90
2391;DHT22;22957;50.824;4.360;2023-07-13T14:15:17;25.10;99.90
2391;DHT22;22957;50.824;4.360;2023-07-13T14:17:43;25.40;99.90
2391;DHT22;22957;50.824;4.360;2023-07-13T14:20:12;25.50;99.90
2391;DHT22;22957;50.824;4.360;2023-07-13T14:22:37;25.20;99.90
2391;DHT22;22957;50.824;4.360;2023-07-13T14:25:03;25.20;99.90
2391;DHT22;22957;50.824;4.360;2023-07-13T14:27:29;25.40;99.90
2391;DHT22;22957;50.824;4.360;2023-07-13T14:29:55;24.90;99.90
2391;DHT22;22957;50.824;4.360;2023-07-13T14:32:20;25.10;99.90
2391;DHT22;22957;50.824;4.360;2023-07-13T14:34:46;25.20;99.90
2391;DHT22;22957;50.824;4.360;2023-07-13T14:37:13;24.80;99.90
2391;DHT22;22957;50.824;4.360;2023-07-13T14:39:40;24.90;99.90
2391;DHT22;22957;50.824;4.360;2023-07-13T14:42:09;25.00;99.90
2391;DHT22;22957;50.824;4.360;2023-07-13T14:44:35;24.90;99.90
2391;DHT22;22957;50.824;4.360;2023-07-13T14:47:02;24.80;99.90
2391;DHT22;22957;50.824;4.360;2023-07-13T14:49:35;25.20;99.90
2391;DHT22;22957;50.824;4.360;2023-07-13T14:52:05;25.30;99.90
2391;DHT22;22957;50.824;4.360;2023-07-13T14:54:36;25.70;99.90
2391;DHT22;22957;50.824;4.360;2023-07-13T14:57:09;25.70;99.90
2391;DHT22;22957;50.824;4.360;2023-07-13T14:59:34;26.10;99.90
2391;DHT22;22957;50.824;4.360;2023-07-13T15:02:00;26.20;99.90
2391;DHT22;22957;50.824;4.360;2023-07-13T15:04:27;26.40;99.90
2391;DHT22;22957;50.824;4.360;2023-07-13T15:06:57;26.50;99.90
2391;DHT22;22957;50.824;4.360;2023-07-13T15:09:25;26.60;99.90
2391;DHT22;22957;50.824;4.360;2023-07-13T15:11:58;26.50;99.90
2391;DHT22;22957;50.824;4.360;2023-07-13T15:14:23;26.60;99.90
2391;DHT22;22957;50.824;4.360;2023-07-13T15:16:53;26.90;99.90
2391;DHT22;22957;50.824;4.360;2023-07-13T15:19:19;26.90;99.90
2391;DHT22;22957;50.824;4.360;2023-07-13T15:21:46;26.60;99.90
2391;DHT22;22957;50.824;4.360;2023-07-13T15:24:13;26.90;99.90
2391;DHT22;22957;50.824;4.360;2023-07-13T15:26:39;27.50;99.90
2391;DHT22;22957;50.824;4.360;2023-07-13T15:29:05;27.50;99.90
2391;DHT22;22957;50.824;4.360;2023-07-13T15:31:32;27.40;99.90
2391;DHT22;22957;50.824;4.360;2023-07-13T15:33:59;27.30;99.90
2391;DHT22;22957;50.824;4.360;2023-07-13T15:36:25;27.10;99.90
2391;DHT22;22957;50.824;4.360;2023-07-13T15:38:54;27.20;99.90
2391;DHT22;22957;50.824;4.360;2023-07-13T15:41:25;27.70;99.90
2391;DHT22;22957;50.824;4.360;2023-07-13T15:43:53;27.40;99.90
2391;DHT22;22957;50.824;4.360;2023-07-13T15:46:20;27.40;99.90
2391;DHT22;22957;50.824;4.360;2023-07-13T15:48:50;27.40;99.90
2391;DHT22;22957;50.824;4.360;2023-07-13T15:51:29;27.20;99.90
2391;DHT22;22957;50.824;4.360;2023-07-13T15:53:58;27.40;99.90
2391;DHT22;22957;50.824;4.360;2023-07-13T15:56:26;27.20;99.90
2391;DHT22;22957;50.824;4.360;2023-07-13T15:58:53;27.00;99.90
2391;DHT22;22957;50.824;4.360;2023-07-13T16:01:19;27.50;99.90
2391;DHT22;22957;50.824;4.360;2023-07-13T16:03:46;27.10;99.90
2391;DHT22;22957;50.824;4.360;2023-07-13T16:06:15;27.30;99.90
2391;DHT22;22957;50.824;4.360;2023-07-13T16:08:42;26.80;99.90
2391;DHT22;22957;50.824;4.360;2023-07-13T16:11:37;26.90;99.90
2391;DHT22;22957;50.824;4.360;2023-07-13T16:14:04;27.10;99.90
2391;DHT22;22957;50.824;4.360;2023-07-13T16:16:32;26.60;99.90
2391;DHT22;22957;50.824;4.360;2023-07-13T16:19:01;26.40;99.90